sensor_id;sensor_type;location;lat;lon;timestamp;temperature;humidity
67862;DHT22;54665;51.462;6.698;2024-01-15T00:00:35;1.66;94.06
67862;DHT22;54665;51.462;6.698;2024-01-15T00:02:35;1.65;94.21
67862;DHT22;54665;51.462;6.698;2024-01-15T00:04:39;1.68;94.09
67862;DHT22;54665;51.462;6.698;2024-01-15T00:06:39;1.82;93.67
67862;DHT22;54665;51.462;6.698;2024-01-15T00:08:40;1.76;94.03
67862;DHT22;54665;51.462;6.698;2024-01-15T00:10:40;1.73;93.89
67862;DHT22;54665;51.462;6.698;2024-01-15T00:12:41;1.72;93.88
67862;DHT22;54665;51.462;6.698;2024-01-15T00:14:41;1.89;93.62
67862;DHT22;54665;51.462;6.698;2024-01-15T00:16:41;1.90;93.61
67862;DHT22;54665;51.462;6.698;2024-01-15T00:18:41;2.03;93.41
67862;DHT22;54665;51.462;6.698;2024-01-15T00:20:42;1.87;93.70
67862;DHT22;54665;51.462;6.698;2024-01-15T00:22:42;1.83;94.13
67862;DHT22;54665;51.462;6.698;2024-01-15T00:24:43;1.96;93.67
67862;DHT22;54665;51.462;6.698;2024-01-15T00:26:43;1.82;94.16
67862;DHT22;54665;51.462;6.698;2024-01-15T00:28:43;1.95;93.80
67862;DHT22;54665;51.462;6.698;2024-01-15T00:30:43;1.93;93.85
67862;DHT22;54665;51.462;6.698;2024-01-15T00:32:44;1.95;93.71
67862;DHT22;54665;51.462;6.698;2024-01-15T00:34:44;1.95;93.78
67862;DHT22;54665;51.462;6.698;2024-01-15T00:36:44;2.00;93.60
67862;DHT22;54665;51.462;6.698;2024-01-15T00:38:45;1.93;93.65
67862;DHT22;54665;51.462;6.698;2024-01-15T00:40:45;1.96;93.73
67862;DHT22;54665;51.462;6.698;2024-01-15T00:42:45;1.95;93.69
67862;DHT22;54665;51.462;6.698;2024-01-15T00:44:46;1.92;93.55
67862;DHT22;54665;51.462;6.698;2024-01-15T00:46:46;1.90;93.65
67862;DHT22;54665;51.462;6.698;2024-01-15T00:48:47;1.87;93.88
67862;DHT22;54665;51.462;6.698;2024-01-15T00:50:47;1.92;93.69
67862;DHT22;54665;51.462;6.698;2024-01-15T00:52:47;1.98;93.35
67862;DHT22;54665;51.462;6.698;2024-01-15T00:54:47;1.98;93.43
67862;DHT22;54665;51.462;6.698;2024-01-15T00:56:48;1.99;93.32
67862;DHT22;54665;51.462;6.698;2024-01-15T00:58:48;2.00;93.45
67862;DHT22;54665;51.462;6.698;2024-01-15T01:00:48;1.90;93.77
67862;DHT22;54665;51.462;6.698;2024-01-15T01:02:48;1.95;93.89
67862;DHT22;54665;51.462;6.698;2024-01-15T01:04:49;2.09;93.51
67862;DHT22;54665;51.462;6.698;2024-01-15T01:06:49;2.02;93.54
67862;DHT22;54665;51.462;6.698;2024-01-15T01:08:49;2.06;93.44
67862;DHT22;54665;51.462;6.698;2024-01-15T01:10:50;2.10;93.36
67862;DHT22;54665;51.462;6.698;2024-01-15T01:12:50;2.13;93.44
67862;DHT22;54665;51.462;6.698;2024-01-15T01:14:50;2.02;93.41
67862;DHT22;54665;51.462;6.698;2024-01-15T01:16:51;1.98;93.65
67862;DHT22;54665;51.462;6.698;2024-01-15T01:18:51;2.03;93.38
67862;DHT22;54665;51.462;6.698;2024-01-15T01:20:51;2.03;93.66
67862;DHT22;54665;51.462;6.698;2024-01-15T01:22:52;2.06;93.76
67862;DHT22;54665;51.462;6.698;2024-01-15T01:24:52;2.07;93.44
67862;DHT22;54665;51.462;6.698;2024-01-15T01:26:52;2.09;93.40
67862;DHT22;54665;51.462;6.698;2024-01-15T01:28:52;2.11;93.34
67862;DHT22;54665;51.462;6.698;2024-01-15T01:30:53;2.05;93.34
67862;DHT22;54665;51.462;6.698;2024-01-15T01:32:53;2.07;93.37
67862;DHT22;54665;51.462;6.698;2024-01-15T01:34:53;2.05;93.23
67862;DHT22;54665;51.462;6.698;2024-01-15T01:36:54;2.03;93.36
67862;DHT22;54665;51.462;6.698;2024-01-15T01:38:54;2.05;93.29
67862;DHT22;54665;51.462;6.698;2024-01-15T01:40:54;2.00;93.08
67862;DHT22;54665;51.462;6.698;2024-01-15T01:42:55;2.06;92.89
67862;DHT22;54665;51.462;6.698;2024-01-15T01:44:55;2.02;93.54
67862;DHT22;54665;51.462;6.698;2024-01-15T01:46:56;2.03;93.39
67862;DHT22;54665;51.462;6.698;2024-01-15T01:48:57;2.07;93.35
67862;DHT22;54665;51.462;6.698;2024-01-15T01:51:00;2.03;93.09
67862;DHT22;54665;51.462;6.698;2024-01-15T01:53:02;2.09;92.92
67862;DHT22;54665;51.462;6.698;2024-01-15T01:55:03;2.09;93.10
67862;DHT22;54665;51.462;6.698;2024-01-15T01:57:05;2.17;92.91
67862;DHT22;54665;51.462;6.698;2024-01-15T01:59:07;2.13;93.14
67862;DHT22;54665;51.462;6.698;2024-01-15T02:01:10;2.14;93.37
67862;DHT22;54665;51.462;6.698;2024-01-15T02:03:11;2.10;92.88
67862;DHT22;54665;51.462;6.698;2024-01-15T02:05:13;2.17;93.23
67862;DHT22;54665;51.462;6.698;2024-01-15T02:07:14;2.07;93.75
67862;DHT22;54665;51.462;6.698;2024-01-15T02:09:14;2.16;92.93
67862;DHT22;54665;51.462;6.698;2024-01-15T02:11:15;2.07;93.10
67862;DHT22;54665;51.462;6.698;2024-01-15T02:13:15;2.13;93.28
67862;DHT22;54665;51.462;6.698;2024-01-15T02:15:15;2.10;93.33
67862;DHT22;54665;51.462;6.698;2024-01-15T02:17:16;2.17;93.10
67862;DHT22;54665;51.462;6.698;2024-01-15T02:19:17;2.13;93.08
67862;DHT22;54665;51.462;6.698;2024-01-15T02:21:17;2.03;93.34
67862;DHT22;54665;51.462;6.698;2024-01-15T02:23:17;2.09;93.19
67862;DHT22;54665;51.462;6.698;2024-01-15T02:25:18;2.10;92.98
67862;DHT22;54665;51.462;6.698;2024-01-15T02:27:19;2.02;93.31
67862;DHT22;54665;51.462;6.698;2024-01-15T02:29:19;2.19;93.13
67862;DHT22;54665;51.462;6.698;2024-01-15T02:31:20;2.23;92.91
67862;DHT22;54665;51.462;6.698;2024-01-15T02:33:20;2.19;92.81
67862;DHT22;54665;51.462;6.698;2024-01-15T02:35:20;2.13;92.84
67862;DHT22;54665;51.462;6.698;2024-01-15T02:37:21;2.13;92.88
67862;DHT22;54665;51.462;6.698;2024-01-15T02:39:22;2.31;92.77
67862;DHT22;54665;51.462;6.698;2024-01-15T02:41:22;2.24;92.67
67862;DHT22;54665;51.462;6.698;2024-01-15T02:43:22;2.26;92.66
67862;DHT22;54665;51.462;6.698;2024-01-15T02:45:23;2.16;92.63
67862;DHT22;54665;51.462;6.698;2024-01-15T02:47:23;2.16;93.08
67862;DHT22;54665;51.462;6.698;2024-01-15T02:49:23;2.16;92.61
67862;DHT22;54665;51.462;6.698;2024-01-15T02:51:23;2.05;92.81
67862;DHT22;54665;51.462;6.698;2024-01-15T02:53:24;2.13;92.78
67862;DHT22;54665;51.462;6.698;2024-01-15T02:55:24;2.07;92.82
67862;DHT22;54665;51.462;6.698;2024-01-15T02:57:24;2.06;92.87
67862;DHT22;54665;51.462;6.698;2024-01-15T02:59:25;2.16;92.40
67862;DHT22;54665;51.462;6.698;2024-01-15T03:01:25;2.06;92.53
67862;DHT22;54665;51.462;6.698;2024-01-15T03:03:25;2.19;92.62
67862;DHT22;54665;51.462;6.698;2024-01-15T03:05:26;2.09;92.47
67862;DHT22;54665;51.462;6.698;2024-01-15T03:07:28;2.05;92.74
67862;DHT22;54665;51.462;6.698;2024-01-15T03:09:28;2.07;92.52
67862;DHT22;54665;51.462;6.698;2024-01-15T03:11:28;2.00;92.64
67862;DHT22;54665;51.462;6.698;2024-01-15T03:13:29;2.00;92.83
67862;DHT22;54665;51.462;6.698;2024-01-15T03:15:29;2.07;92.70
67862;DHT22;54665;51.462;6.698;2024-01-15T03:17:29;2.09;92.53
67862;DHT22;54665;51.462;6.698;2024-01-15T03:19:30;2.14;92.62
67862;DHT22;54665;51.462;6.698;2024-01-15T03:21:30;2.20;92.61
67862;DHT22;54665;51.462;6.698;2024-01-15T03:23:30;2.16;92.46
67862;DHT22;54665;51.462;6.698;2024-01-15T03:25:30;2.19;92.31
67862;DHT22;54665;51.462;6.698;2024-01-15T03:27:31;2.10;92.43
67862;DHT22;54665;51.462;6.698;2024-01-15T03:29:31;2.03;92.66
67862;DHT22;54665;51.462;6.698;2024-01-15T03:31:31;2.14;92.20
67862;DHT22;54665;51.462;6.698;2024-01-15T03:33:31;2.07;92.50
67862;DHT22;54665;51.462;6.698;2024-01-15T03:35:32;2.16;92.23
67862;DHT22;54665;51.462;6.698;2024-01-15T03:37:32;2.13;91.82
67862;DHT22;54665;51.462;6.698;2024-01-15T03:39:32;1.96;92.52
67862;DHT22;54665;51.462;6.698;2024-01-15T03:41:33;1.93;92.77
67862;DHT22;54665;51.462;6.698;2024-01-15T03:43:33;1.87;92.77
67862;DHT22;54665;51.462;6.698;2024-01-15T03:45:33;1.98;92.71
67862;DHT22;54665;51.462;6.698;2024-01-15T03:47:34;2.07;92.41
67862;DHT22;54665;51.462;6.698;2024-01-15T03:49:34;2.16;92.46
67862;DHT22;54665;51.462;6.698;2024-01-15T03:51:34;2.19;92.24
67862;DHT22;54665;51.462;6.698;2024-01-15T03:53:34;2.14;92.12
67862;DHT22;54665;51.462;6.698;2024-01-15T03:55:35;2.13;92.23
67862;DHT22;54665;51.462;6.698;2024-01-15T03:57:35;2.16;92.08
67862;DHT22;54665;51.462;6.698;2024-01-15T03:59:35;2.21;92.00
67862;DHT22;54665;51.462;6.698;2024-01-15T04:01:36;2.23;91.62
67862;DHT22;54665;51.462;6.698;2024-01-15T04:03:36;1.99;92.37
67862;DHT22;54665;51.462;6.698;2024-01-15T04:05:38;2.05;92.29
67862;DHT22;54665;51.462;6.698;2024-01-15T04:07:38;2.07;92.35
67862;DHT22;54665;51.462;6.698;2024-01-15T04:09:38;2.02;92.50
67862;DHT22;54665;51.462;6.698;2024-01-15T04:11:39;1.99;92.23
67862;DHT22;54665;51.462;6.698;2024-01-15T04:13:39;2.05;92.27
67862;DHT22;54665;51.462;6.698;2024-01-15T04:15:40;1.99;92.56
67862;DHT22;54665;51.462;6.698;2024-01-15T04:17:40;2.05;92.35
67862;DHT22;54665;51.462;6.698;2024-01-15T04:19:40;1.92;92.53
67862;DHT22;54665;51.462;6.698;2024-01-15T04:21:43;1.90;92.82
67862;DHT22;54665;51.462;6.698;2024-01-15T04:23:43;1.82;93.04
67862;DHT22;54665;51.462;6.698;2024-01-15T04:25:44;1.86;92.99
67862;DHT22;54665;51.462;6.698;2024-01-15T04:27:44;1.89;92.48
67862;DHT22;54665;51.462;6.698;2024-01-15T04:29:44;1.85;92.70
67862;DHT22;54665;51.462;6.698;2024-01-15T04:31:44;1.75;92.90
67862;DHT22;54665;51.462;6.698;2024-01-15T04:33:45;1.85;92.90
67862;DHT22;54665;51.462;6.698;2024-01-15T04:35:45;1.96;92.47
67862;DHT22;54665;51.462;6.698;2024-01-15T04:37:45;1.78;92.87
67862;DHT22;54665;51.462;6.698;2024-01-15T04:39:45;1.87;92.87
67862;DHT22;54665;51.462;6.698;2024-01-15T04:41:46;1.82;92.71
67862;DHT22;54665;51.462;6.698;2024-01-15T04:43:46;1.92;92.55
67862;DHT22;54665;51.462;6.698;2024-01-15T04:45:46;1.95;92.55
67862;DHT22;54665;51.462;6.698;2024-01-15T04:47:47;2.05;92.15
67862;DHT22;54665;51.462;6.698;2024-01-15T04:49:47;1.85;92.64
67862;DHT22;54665;51.462;6.698;2024-01-15T04:51:47;1.93;92.64
67862;DHT22;54665;51.462;6.698;2024-01-15T04:53:48;1.96;92.35
67862;DHT22;54665;51.462;6.698;2024-01-15T04:55:48;1.90;92.26
67862;DHT22;54665;51.462;6.698;2024-01-15T04:57:48;1.95;92.50
67862;DHT22;54665;51.462;6.698;2024-01-15T04:59:48;1.92;92.33
67862;DHT22;54665;51.462;6.698;2024-01-15T05:01:49;1.83;92.53
67862;DHT22;54665;51.462;6.698;2024-01-15T05:03:49;1.86;92.25
67862;DHT22;54665;51.462;6.698;2024-01-15T05:05:49;1.86;92.21
67862;DHT22;54665;51.462;6.698;2024-01-15T05:07:50;1.92;92.13
67862;DHT22;54665;51.462;6.698;2024-01-15T05:09:50;1.87;92.23
67862;DHT22;54665;51.462;6.698;2024-01-15T05:11:50;2.05;92.21
67862;DHT22;54665;51.462;6.698;2024-01-15T05:13:51;1.95;92.40
67862;DHT22;54665;51.462;6.698;2024-01-15T05:15:52;1.95;92.37
67862;DHT22;54665;51.462;6.698;2024-01-15T05:17:52;2.02;91.98
67862;DHT22;54665;51.462;6.698;2024-01-15T05:19:52;2.05;92.26
67862;DHT22;54665;51.462;6.698;2024-01-15T05:21:53;2.06;92.12
67862;DHT22;54665;51.462;6.698;2024-01-15T05:23:53;2.05;92.18
67862;DHT22;54665;51.462;6.698;2024-01-15T05:25:53;2.07;92.25
67862;DHT22;54665;51.462;6.698;2024-01-15T05:27:54;2.11;92.13
67862;DHT22;54665;51.462;6.698;2024-01-15T05:29:54;2.00;92.12
67862;DHT22;54665;51.462;6.698;2024-01-15T05:31:55;2.02;92.29
67862;DHT22;54665;51.462;6.698;2024-01-15T05:33:55;2.03;92.26
67862;DHT22;54665;51.462;6.698;2024-01-15T05:35:55;2.06;92.06
67862;DHT22;54665;51.462;6.698;2024-01-15T05:37:55;2.19;91.88
67862;DHT22;54665;51.462;6.698;2024-01-15T05:39:56;2.10;92.19
67862;DHT22;54665;51.462;6.698;2024-01-15T05:41:56;2.09;92.06
67862;DHT22;54665;51.462;6.698;2024-01-15T05:43:56;2.05;92.23
67862;DHT22;54665;51.462;6.698;2024-01-15T05:45:57;2.10;92.24
67862;DHT22;54665;51.462;6.698;2024-01-15T05:47:57;2.23;91.84
67862;DHT22;54665;51.462;6.698;2024-01-15T05:49:57;2.11;92.14
67862;DHT22;54665;51.462;6.698;2024-01-15T05:51:58;2.27;91.81
67862;DHT22;54665;51.462;6.698;2024-01-15T05:53:58;2.16;92.20
67862;DHT22;54665;51.462;6.698;2024-01-15T05:55:58;2.29;91.69
67862;DHT22;54665;51.462;6.698;2024-01-15T05:57:59;2.24;91.89
67862;DHT22;54665;51.462;6.698;2024-01-15T05:59:59;2.34;91.61
67862;DHT22;54665;51.462;6.698;2024-01-15T06:02:00;2.20;91.71
67862;DHT22;54665;51.462;6.698;2024-01-15T06:04:00;2.24;91.73
67862;DHT22;54665;51.462;6.698;2024-01-15T06:06:00;2.31;91.75
67862;DHT22;54665;51.462;6.698;2024-01-15T06:08:01;2.37;91.42
67862;DHT22;54665;51.462;6.698;2024-01-15T06:10:01;2.36;91.69
67862;DHT22;54665;51.462;6.698;2024-01-15T06:12:01;2.19;91.89
67862;DHT22;54665;51.462;6.698;2024-01-15T06:14:01;2.29;91.63
67862;DHT22;54665;51.462;6.698;2024-01-15T06:16:02;2.47;91.08
67862;DHT22;54665;51.462;6.698;2024-01-15T06:18:02;2.42;91.51
67862;DHT22;54665;51.462;6.698;2024-01-15T06:20:03;2.38;91.10
67862;DHT22;54665;51.462;6.698;2024-01-15T06:22:03;2.51;91.16
67862;DHT22;54665;51.462;6.698;2024-01-15T06:24:04;2.45;91.07
67862;DHT22;54665;51.462;6.698;2024-01-15T06:26:05;2.40;90.93
67862;DHT22;54665;51.462;6.698;2024-01-15T06:28:05;2.52;90.72
67862;DHT22;54665;51.462;6.698;2024-01-15T06:30:06;2.48;90.88
67862;DHT22;54665;51.462;6.698;2024-01-15T06:32:06;2.55;90.51
67862;DHT22;54665;51.462;6.698;2024-01-15T06:34:06;2.29;91.26
67862;DHT22;54665;51.462;6.698;2024-01-15T06:36:07;2.26;91.58
67862;DHT22;54665;51.462;6.698;2024-01-15T06:38:07;2.24;91.65
67862;DHT22;54665;51.462;6.698;2024-01-15T06:40:08;2.29;91.49
67862;DHT22;54665;51.462;6.698;2024-01-15T06:42:08;2.31;91.51
67862;DHT22;54665;51.462;6.698;2024-01-15T06:44:12;2.33;91.51
67862;DHT22;54665;51.462;6.698;2024-01-15T06:46:12;2.20;91.86
67862;DHT22;54665;51.462;6.698;2024-01-15T06:48:13;2.31;91.79
67862;DHT22;54665;51.462;6.698;2024-01-15T06:50:13;2.29;91.70
67862;DHT22;54665;51.462;6.698;2024-01-15T06:52:13;2.31;91.81
67862;DHT22;54665;51.462;6.698;2024-01-15T06:54:14;2.23;91.79
67862;DHT22;54665;51.462;6.698;2024-01-15T06:56:14;2.23;91.71
67862;DHT22;54665;51.462;6.698;2024-01-15T06:58:14;2.03;92.63
67862;DHT22;54665;51.462;6.698;2024-01-15T07:00:16;2.17;92.05
67862;DHT22;54665;51.462;6.698;2024-01-15T07:02:16;2.19;91.81
67862;DHT22;54665;51.462;6.698;2024-01-15T07:04:16;2.13;92.15
67862;DHT22;54665;51.462;6.698;2024-01-15T07:06:17;2.07;92.51
67862;DHT22;54665;51.462;6.698;2024-01-15T07:08:17;2.16;92.34
67862;DHT22;54665;51.462;6.698;2024-01-15T07:10:17;2.17;92.38
67862;DHT22;54665;51.462;6.698;2024-01-15T07:12:18;2.07;92.60
67862;DHT22;54665;51.462;6.698;2024-01-15T07:14:18;2.06;92.44
67862;DHT22;54665;51.462;6.698;2024-01-15T07:16:18;2.11;92.62
67862;DHT22;54665;51.462;6.698;2024-01-15T07:18:18;2.14;92.39
67862;DHT22;54665;51.462;6.698;2024-01-15T07:20:19;2.14;92.43
67862;DHT22;54665;51.462;6.698;2024-01-15T07:22:19;2.07;92.46
67862;DHT22;54665;51.462;6.698;2024-01-15T07:24:19;2.09;92.80
67862;DHT22;54665;51.462;6.698;2024-01-15T07:26:20;1.89;92.65
67862;DHT22;54665;51.462;6.698;2024-01-15T07:28:20;2.09;92.75
67862;DHT22;54665;51.462;6.698;2024-01-15T07:30:20;2.11;92.46
67862;DHT22;54665;51.462;6.698;2024-01-15T07:32:20;2.16;92.42
67862;DHT22;54665;51.462;6.698;2024-01-15T07:34:21;2.02;92.75
67862;DHT22;54665;51.462;6.698;2024-01-15T07:36:21;1.96;92.81
67862;DHT22;54665;51.462;6.698;2024-01-15T07:38:21;2.03;93.02
67862;DHT22;54665;51.462;6.698;2024-01-15T07:40:22;2.02;93.05
67862;DHT22;54665;51.462;6.698;2024-01-15T07:42:22;1.93;93.31
67862;DHT22;54665;51.462;6.698;2024-01-15T07:44:22;1.99;93.44
67862;DHT22;54665;51.462;6.698;2024-01-15T07:46:23;1.96;93.31
67862;DHT22;54665;51.462;6.698;2024-01-15T07:48:23;2.10;92.96
67862;DHT22;54665;51.462;6.698;2024-01-15T07:50:23;1.99;93.10
67862;DHT22;54665;51.462;6.698;2024-01-15T07:52:23;1.96;93.07
67862;DHT22;54665;51.462;6.698;2024-01-15T07:54:24;1.90;93.18
67862;DHT22;54665;51.462;6.698;2024-01-15T07:56:24;1.78;93.62
67862;DHT22;54665;51.462;6.698;2024-01-15T07:58:24;1.82;93.65
67862;DHT22;54665;51.462;6.698;2024-01-15T08:00:25;1.66;94.32
67862;DHT22;54665;51.462;6.698;2024-01-15T08:02:25;1.72;93.77
67862;DHT22;54665;51.462;6.698;2024-01-15T08:04:26;1.72;94.06
67862;DHT22;54665;51.462;6.698;2024-01-15T08:06:26;1.69;94.13
67862;DHT22;54665;51.462;6.698;2024-01-15T08:08:26;1.69;94.12
67862;DHT22;54665;51.462;6.698;2024-01-15T08:10:26;1.73;94.26
67862;DHT22;54665;51.462;6.698;2024-01-15T08:12:27;1.75;94.16
67862;DHT22;54665;51.462;6.698;2024-01-15T08:14:27;1.79;94.14
67862;DHT22;54665;51.462;6.698;2024-01-15T08:16:27;1.83;94.07
67862;DHT22;54665;51.462;6.698;2024-01-15T08:18:28;1.82;94.07
67862;DHT22;54665;51.462;6.698;2024-01-15T08:20:28;1.75;93.90
67862;DHT22;54665;51.462;6.698;2024-01-15T08:22:28;1.95;93.88
67862;DHT22;54665;51.462;6.698;2024-01-15T08:24:28;1.75;93.91
67862;DHT22;54665;51.462;6.698;2024-01-15T08:26:29;1.78;94.14
67862;DHT22;54665;51.462;6.698;2024-01-15T08:28:30;1.79;93.87
67862;DHT22;54665;51.462;6.698;2024-01-15T08:30:30;1.82;93.92
67862;DHT22;54665;51.462;6.698;2024-01-15T08:32:30;1.72;94.42
67862;DHT22;54665;51.462;6.698;2024-01-15T08:34:31;1.82;93.72
67862;DHT22;54665;51.462;6.698;2024-01-15T08:36:31;1.80;94.17
67862;DHT22;54665;51.462;6.698;2024-01-15T08:38:31;1.89;93.94
67862;DHT22;54665;51.462;6.698;2024-01-15T08:40:32;1.62;94.71
67862;DHT22;54665;51.462;6.698;2024-01-15T08:42:32;1.60;94.32
67862;DHT22;54665;51.462;6.698;2024-01-15T08:44:32;1.52;94.74
67862;DHT22;54665;51.462;6.698;2024-01-15T08:46:33;1.35;95.11
67862;DHT22;54665;51.462;6.698;2024-01-15T08:48:33;1.28;95.43
67862;DHT22;54665;51.462;6.698;2024-01-15T08:50:33;1.25;95.37
67862;DHT22;54665;51.462;6.698;2024-01-15T08:52:33;1.42;94.70
67862;DHT22;54665;51.462;6.698;2024-01-15T08:54:34;1.48;94.26
67862;DHT22;54665;51.462;6.698;2024-01-15T08:56:34;1.47;94.48
67862;DHT22;54665;51.462;6.698;2024-01-15T08:58:35;1.35;95.09
67862;DHT22;54665;51.462;6.698;2024-01-15T09:00:35;1.47;94.80
67862;DHT22;54665;51.462;6.698;2024-01-15T09:02:35;1.52;94.36
67862;DHT22;54665;51.462;6.698;2024-01-15T09:04:36;1.47;94.22
67862;DHT22;54665;51.462;6.698;2024-01-15T09:06:36;1.58;94.30
67862;DHT22;54665;51.462;6.698;2024-01-15T09:08:36;1.62;93.86
67862;DHT22;54665;51.462;6.698;2024-01-15T09:10:37;1.66;94.14
67862;DHT22;54665;51.462;6.698;2024-01-15T09:12:37;1.62;93.84
67862;DHT22;54665;51.462;6.698;2024-01-15T09:14:37;1.79;93.61
67862;DHT22;54665;51.462;6.698;2024-01-15T09:16:37;1.73;94.06
67862;DHT22;54665;51.462;6.698;2024-01-15T09:18:38;1.86;93.51
67862;DHT22;54665;51.462;6.698;2024-01-15T09:20:38;2.03;92.91
67862;DHT22;54665;51.462;6.698;2024-01-15T09:22:38;1.99;93.09
67862;DHT22;54665;51.462;6.698;2024-01-15T09:24:40;1.90;93.02
67862;DHT22;54665;51.462;6.698;2024-01-15T09:26:41;2.09;92.78
67862;DHT22;54665;51.462;6.698;2024-01-15T09:28:41;2.20;92.58
67862;DHT22;54665;51.462;6.698;2024-01-15T09:30:41;1.87;93.83
67862;DHT22;54665;51.462;6.698;2024-01-15T09:32:42;2.07;92.74
67862;DHT22;54665;51.462;6.698;2024-01-15T09:34:42;2.02;92.98
67862;DHT22;54665;51.462;6.698;2024-01-15T09:36:43;1.99;92.86
67862;DHT22;54665;51.462;6.698;2024-01-15T09:38:43;2.11;92.98
67862;DHT22;54665;51.462;6.698;2024-01-15T09:40:45;2.09;92.92
67862;DHT22;54665;51.462;6.698;2024-01-15T09:42:46;2.03;93.08
67862;DHT22;54665;51.462;6.698;2024-01-15T09:44:46;1.98;93.29
67862;DHT22;54665;51.462;6.698;2024-01-15T09:46:47;2.19;92.99
67862;DHT22;54665;51.462;6.698;2024-01-15T09:48:47;1.96;92.82
67862;DHT22;54665;51.462;6.698;2024-01-15T09:50:48;2.16;92.58
67862;DHT22;54665;51.462;6.698;2024-01-15T09:52:49;2.27;92.55
67862;DHT22;54665;51.462;6.698;2024-01-15T09:54:50;2.26;92.48
67862;DHT22;54665;51.462;6.698;2024-01-15T09:56:50;1.96;92.58
67862;DHT22;54665;51.462;6.698;2024-01-15T09:58:50;2.00;92.79
67862;DHT22;54665;51.462;6.698;2024-01-15T10:00:51;2.10;92.77
67862;DHT22;54665;51.462;6.698;2024-01-15T10:02:52;2.09;92.77
67862;DHT22;54665;51.462;6.698;2024-01-15T10:04:52;2.10;92.88
67862;DHT22;54665;51.462;6.698;2024-01-15T10:06:54;2.09;92.87
67862;DHT22;54665;51.462;6.698;2024-01-15T10:08:56;2.05;92.93
67862;DHT22;54665;51.462;6.698;2024-01-15T10:10:57;2.05;92.90
67862;DHT22;54665;51.462;6.698;2024-01-15T10:12:58;1.99;92.66
67862;DHT22;54665;51.462;6.698;2024-01-15T10:14:59;2.05;92.51
67862;DHT22;54665;51.462;6.698;2024-01-15T10:16:59;2.27;92.23
67862;DHT22;54665;51.462;6.698;2024-01-15T10:18:59;2.21;92.14
67862;DHT22;54665;51.462;6.698;2024-01-15T10:20:59;2.14;92.33
67862;DHT22;54665;51.462;6.698;2024-01-15T10:23:00;2.36;92.21
67862;DHT22;54665;51.462;6.698;2024-01-15T10:25:01;2.21;91.63
67862;DHT22;54665;51.462;6.698;2024-01-15T10:27:08;2.41;91.42
67862;DHT22;54665;51.462;6.698;2024-01-15T10:29:09;2.14;91.74
67862;DHT22;54665;51.462;6.698;2024-01-15T10:31:09;2.34;91.84
67862;DHT22;54665;51.462;6.698;2024-01-15T10:33:09;2.20;91.77
67862;DHT22;54665;51.462;6.698;2024-01-15T10:35:10;2.17;91.87
67862;DHT22;54665;51.462;6.698;2024-01-15T10:37:10;2.09;92.08
67862;DHT22;54665;51.462;6.698;2024-01-15T10:39:13;2.06;92.61
67862;DHT22;54665;51.462;6.698;2024-01-15T10:41:13;2.13;92.30
67862;DHT22;54665;51.462;6.698;2024-01-15T10:43:14;2.10;92.26
67862;DHT22;54665;51.462;6.698;2024-01-15T10:45:14;2.29;91.67
67862;DHT22;54665;51.462;6.698;2024-01-15T10:47:15;2.27;91.67
67862;DHT22;54665;51.462;6.698;2024-01-15T10:49:16;2.23;91.70
67862;DHT22;54665;51.462;6.698;2024-01-15T10:51:16;2.31;91.78
67862;DHT22;54665;51.462;6.698;2024-01-15T10:53:17;2.23;91.93
67862;DHT22;54665;51.462;6.698;2024-01-15T10:55:18;2.33;91.48
67862;DHT22;54665;51.462;6.698;2024-01-15T10:57:20;2.09;92.10
67862;DHT22;54665;51.462;6.698;2024-01-15T10:59:21;2.19;92.40
67862;DHT22;54665;51.462;6.698;2024-01-15T11:01:22;2.19;92.59
67862;DHT22;54665;51.462;6.698;2024-01-15T11:03:22;2.36;91.47
67862;DHT22;54665;51.462;6.698;2024-01-15T11:05:23;2.60;91.49
67862;DHT22;54665;51.462;6.698;2024-01-15T11:07:23;2.66;90.67
67862;DHT22;54665;51.462;6.698;2024-01-15T11:09:24;2.74;90.84
67862;DHT22;54665;51.462;6.698;2024-01-15T11:11:25;2.66;91.03
67862;DHT22;54665;51.462;6.698;2024-01-15T11:15:31;2.48;91.64
67862;DHT22;54665;51.462;6.698;2024-01-15T11:17:58;2.60;91.28
67862;DHT22;54665;51.462;6.698;2024-01-15T11:19:59;2.64;91.12
67862;DHT22;54665;51.462;6.698;2024-01-15T11:21:59;2.57;91.48
67862;DHT22;54665;51.462;6.698;2024-01-15T11:24:01;2.50;91.50
67862;DHT22;54665;51.462;6.698;2024-01-15T11:26:01;2.40;91.78
67862;DHT22;54665;51.462;6.698;2024-01-15T11:28:01;2.42;91.58
67862;DHT22;54665;51.462;6.698;2024-01-15T11:30:08;2.44;91.70
67862;DHT22;54665;51.462;6.698;2024-01-15T11:32:08;2.42;91.69
67862;DHT22;54665;51.462;6.698;2024-01-15T11:34:10;2.54;91.88
67862;DHT22;54665;51.462;6.698;2024-01-15T11:36:10;2.38;92.02
67862;DHT22;54665;51.462;6.698;2024-01-15T11:38:11;2.29;92.23
67862;DHT22;54665;51.462;6.698;2024-01-15T11:40:11;2.17;92.84
67862;DHT22;54665;51.462;6.698;2024-01-15T11:42:12;2.30;92.81
67862;DHT22;54665;51.462;6.698;2024-01-15T11:44:12;2.38;92.24
67862;DHT22;54665;51.462;6.698;2024-01-15T11:46:12;2.42;92.20
67862;DHT22;54665;51.462;6.698;2024-01-15T11:48:14;2.44;92.04
67862;DHT22;54665;51.462;6.698;2024-01-15T11:50:15;2.48;91.67
67862;DHT22;54665;51.462;6.698;2024-01-15T11:52:17;2.58;91.24
67862;DHT22;54665;51.462;6.698;2024-01-15T11:54:17;2.74;90.66
67862;DHT22;54665;51.462;6.698;2024-01-15T11:56:21;2.65;90.92
67862;DHT22;54665;51.462;6.698;2024-01-15T11:58:22;2.52;91.26
67862;DHT22;54665;51.462;6.698;2024-01-15T12:00:23;2.70;90.57
67862;DHT22;54665;51.462;6.698;2024-01-15T12:02:23;2.57;90.61
67862;DHT22;54665;51.462;6.698;2024-01-15T12:04:24;2.65;90.56
67862;DHT22;54665;51.462;6.698;2024-01-15T12:06:24;2.44;90.48
67862;DHT22;54665;51.462;6.698;2024-01-15T12:08:24;2.62;90.64
67862;DHT22;54665;51.462;6.698;2024-01-15T12:10:25;2.66;90.44
67862;DHT22;54665;51.462;6.698;2024-01-15T12:12:43;2.99;90.11
67862;DHT22;54665;51.462;6.698;2024-01-15T12:14:46;3.19;89.82
67862;DHT22;54665;51.462;6.698;2024-01-15T12:16:46;3.16;89.34
67862;DHT22;54665;51.462;6.698;2024-01-15T12:18:47;3.53;88.86
67862;DHT22;54665;51.462;6.698;2024-01-15T12:20:47;3.43;88.56
67862;DHT22;54665;51.462;6.698;2024-01-15T12:22:47;3.71;88.40
67862;DHT22;54665;51.462;6.698;2024-01-15T12:24:48;3.57;88.26
67862;DHT22;54665;51.462;6.698;2024-01-15T12:26:48;3.40;88.67
67862;DHT22;54665;51.462;6.698;2024-01-15T12:28:50;3.60;89.06
67862;DHT22;54665;51.462;6.698;2024-01-15T12:30:50;3.32;88.82
67862;DHT22;54665;51.462;6.698;2024-01-15T12:32:50;3.40;89.23
67862;DHT22;54665;51.462;6.698;2024-01-15T12:34:51;3.50;89.27
67862;DHT22;54665;51.462;6.698;2024-01-15T12:36:51;3.34;88.94
67862;DHT22;54665;51.462;6.698;2024-01-15T12:38:51;3.24;89.17
67862;DHT22;54665;51.462;6.698;2024-01-15T12:40:52;3.11;89.02
67862;DHT22;54665;51.462;6.698;2024-01-15T12:42:52;3.09;89.63
67862;DHT22;54665;51.462;6.698;2024-01-15T12:44:55;3.05;89.77
67862;DHT22;54665;51.462;6.698;2024-01-15T12:46:56;2.95;89.87
67862;DHT22;54665;51.462;6.698;2024-01-15T12:48:57;2.70;90.44
67862;DHT22;54665;51.462;6.698;2024-01-15T12:50:57;2.92;90.61
67862;DHT22;54665;51.462;6.698;2024-01-15T12:52:58;2.88;89.84
67862;DHT22;54665;51.462;6.698;2024-01-15T12:54:58;2.75;90.17